sensor_id;sensor_type;location;lat;lon;timestamp;P1;durP1;ratioP1;P2;durP2;ratioP2
67762;SDS011;54566;52.022;5.582;2023-01-23T01:27:58;27.52;;;10.55;;
67762;SDS011;54566;52.022;5.582;2023-01-23T01:30:25;21.98;;;10.55;;
67762;SDS011;54566;52.022;5.582;2023-01-23T01:32:52;27.77;;;10.02;;
67762;SDS011;54566;52.022;5.582;2023-01-23T01:35:19;18.73;;;10.57;;
67762;SDS011;54566;52.022;5.582;2023-01-23T01:37:45;23.48;;;10.48;;
67762;SDS011;54566;52.022;5.582;2023-01-23T01:40:16;23.63;;;10.82;;
67762;SDS011;54566;52.022;5.582;2023-01-23T01:42:43;26.45;;;10.95;;
67762;SDS011;54566;52.022;5.582;2023-01-23T01:47:54;20.73;;;10.38;;
67762;SDS011;54566;52.022;5.582;2023-01-23T01:50:24;16.10;;;10.13;;
67762;SDS011;54566;52.022;5.582;2023-01-23T01:52:50;21.27;;;9.55;;
67762;SDS011;54566;52.022;5.582;2023-01-23T01:55:16;19.40;;;10.32;;
67762;SDS011;54566;52.022;5.582;2023-01-23T01:57:42;19.13;;;10.77;;
67762;SDS011;54566;52.022;5.582;2023-01-23T02:00:13;24.60;;;10.23;;
67762;SDS011;54566;52.022;5.582;2023-01-23T02:02:53;26.17;;;10.63;;
67762;SDS011;54566;52.022;5.582;2023-01-23T02:05:21;21.95;;;10.73;;
67762;SDS011;54566;52.022;5.582;2023-01-23T02:08:02;22.83;;;10.63;;
67762;SDS011;54566;52.022;5.582;2023-01-23T02:13:36;24.77;;;10.73;;
67762;SDS011;54566;52.022;5.582;2023-01-23T02:16:07;25.98;;;11.50;;
67762;SDS011;54566;52.022;5.582;2023-01-23T02:18:35;30.75;;;11.50;;
67762;SDS011;54566;52.022;5.582;2023-01-23T02:21:03;24.15;;;10.55;;
67762;SDS011;54566;52.022;5.582;2023-01-23T02:26:22;30.95;;;11.27;;
67762;SDS011;54566;52.022;5.582;2023-01-23T02:29:01;29.40;;;11.88;;
67762;SDS011;54566;52.022;5.582;2023-01-23T02:31:27;22.77;;;11.77;;
67762;SDS011;54566;52.022;5.582;2023-01-23T02:33:57;32.53;;;11.45;;
67762;SDS011;54566;52.022;5.582;2023-01-23T02:36:24;28.98;;;11.23;;
67762;SDS011;54566;52.022;5.582;2023-01-23T02:39:07;25.52;;;11.68;;
67762;SDS011;54566;52.022;5.582;2023-01-23T02:41:41;29.35;;;12.45;;
67762;SDS011;54566;52.022;5.582;2023-01-23T02:44:18;30.23;;;12.45;;
67762;SDS011;54566;52.022;5.582;2023-01-23T02:47:05;33.42;;;11.88;;
67762;SDS011;54566;52.022;5.582;2023-01-23T02:49:37;31.80;;;12.27;;
67762;SDS011;54566;52.022;5.582;2023-01-23T02:52:06;31.67;;;12.35;;
67762;SDS011;54566;52.022;5.582;2023-01-23T02:54:33;28.70;;;12.57;;
67762;SDS011;54566;52.022;5.582;2023-01-23T02:57:00;25.40;;;12.15;;
67762;SDS011;54566;52.022;5.582;2023-01-23T02:59:26;24.25;;;11.95;;
67762;SDS011;54566;52.022;5.582;2023-01-23T03:02:10;33.63;;;12.07;;
67762;SDS011;54566;52.022;5.582;2023-01-23T03:04:39;30.10;;;11.35;;
67762;SDS011;54566;52.022;5.582;2023-01-23T03:07:05;29.52;;;11.90;;
67762;SDS011;54566;52.022;5.582;2023-01-23T03:09:32;28.70;;;12.25;;
67762;SDS011;54566;52.022;5.582;2023-01-23T03:11:58;31.00;;;12.85;;
67762;SDS011;54566;52.022;5.582;2023-01-23T03:14:24;34.33;;;13.82;;
67762;SDS011;54566;52.022;5.582;2023-01-23T03:16:51;25.38;;;12.75;;
67762;SDS011;54566;52.022;5.582;2023-01-23T03:19:18;31.05;;;12.75;;
67762;SDS011;54566;52.022;5.582;2023-01-23T03:21:44;31.10;;;13.13;;
67762;SDS011;54566;52.022;5.582;2023-01-23T03:24:11;30.23;;;13.43;;
67762;SDS011;54566;52.022;5.582;2023-01-23T03:26:38;34.75;;;13.23;;
67762;SDS011;54566;52.022;5.582;2023-01-23T03:29:04;35.25;;;12.35;;
67762;SDS011;54566;52.022;5.582;2023-01-23T03:31:49;34.63;;;12.38;;
67762;SDS011;54566;52.022;5.582;2023-01-23T03:34:15;32.38;;;12.52;;
67762;SDS011;54566;52.022;5.582;2023-01-23T03:36:46;35.75;;;12.63;;
67762;SDS011;54566;52.022;5.582;2023-01-23T03:39:12;31.30;;;13.27;;
67762;SDS011;54566;52.022;5.582;2023-01-23T03:41:57;25.33;;;12.23;;
67762;SDS011;54566;52.022;5.582;2023-01-23T03:44:23;30.67;;;12.00;;
67762;SDS011;54566;52.022;5.582;2023-01-23T03:46:49;31.83;;;13.25;;
67762;SDS011;54566;52.022;5.582;2023-01-23T03:49:17;43.08;;;14.43;;
67762;SDS011;54566;52.022;5.582;2023-01-23T03:51:43;33.85;;;13.68;;
67762;SDS011;54566;52.022;5.582;2023-01-23T03:54:10;32.85;;;13.02;;
67762;SDS011;54566;52.022;5.582;2023-01-23T03:56:36;33.30;;;13.75;;
67762;SDS011;54566;52.022;5.582;2023-01-23T03:59:03;33.05;;;13.90;;
67762;SDS011;54566;52.022;5.582;2023-01-23T04:01:29;32.28;;;13.13;;
67762;SDS011;54566;52.022;5.582;2023-01-23T04:03:55;35.28;;;13.88;;
67762;SDS011;54566;52.022;5.582;2023-01-23T04:06:21;39.92;;;13.88;;
67762;SDS011;54566;52.022;5.582;2023-01-23T04:08:47;34.25;;;13.60;;
67762;SDS011;54566;52.022;5.582;2023-01-23T04:11:13;39.00;;;14.05;;
67762;SDS011;54566;52.022;5.582;2023-01-23T04:13:39;32.97;;;14.38;;
67762;SDS011;54566;52.022;5.582;2023-01-23T04:16:07;35.40;;;14.13;;
67762;SDS011;54566;52.022;5.582;2023-01-23T04:18:33;30.25;;;14.13;;
67762;SDS011;54566;52.022;5.582;2023-01-23T04:20:59;32.75;;;12.88;;
67762;SDS011;54566;52.022;5.582;2023-01-23T04:23:25;38.80;;;13.90;;
67762;SDS011;54566;52.022;5.582;2023-01-23T04:25:51;34.47;;;14.13;;
67762;SDS011;54566;52.022;5.582;2023-01-23T04:28:18;32.55;;;13.18;;
67762;SDS011;54566;52.022;5.582;2023-01-23T04:30:44;34.92;;;13.70;;
67762;SDS011;54566;52.022;5.582;2023-01-23T04:33:10;28.85;;;14.15;;
67762;SDS011;54566;52.022;5.582;2023-01-23T04:35:37;36.28;;;14.30;;
67762;SDS011;54566;52.022;5.582;2023-01-23T04:38:03;33.85;;;14.82;;
67762;SDS011;54566;52.022;5.582;2023-01-23T04:40:29;34.08;;;14.73;;
67762;SDS011;54566;52.022;5.582;2023-01-23T04:42:55;30.25;;;14.30;;
67762;SDS011;54566;52.022;5.582;2023-01-23T04:45:21;34.50;;;13.77;;
67762;SDS011;54566;52.022;5.582;2023-01-23T04:47:47;24.77;;;13.77;;
67762;SDS011;54566;52.022;5.582;2023-01-23T04:50:14;30.88;;;14.43;;
67762;SDS011;54566;52.022;5.582;2023-01-23T04:52:40;31.45;;;13.75;;
67762;SDS011;54566;52.022;5.582;2023-01-23T04:55:06;32.55;;;14.55;;
67762;SDS011;54566;52.022;5.582;2023-01-23T04:57:32;29.42;;;13.38;;
67762;SDS011;54566;52.022;5.582;2023-01-23T04:59:58;38.00;;;14.23;;
67762;SDS011;54566;52.022;5.582;2023-01-23T05:02:24;33.10;;;15.48;;
67762;SDS011;54566;52.022;5.582;2023-01-23T05:07:59;27.10;;;12.65;;
67762;SDS011;54566;52.022;5.582;2023-01-23T05:12:51;31.90;;;14.02;;
67762;SDS011;54566;52.022;5.582;2023-01-23T05:24:50;34.60;;;13.45;;
67762;SDS011;54566;52.022;5.582;2023-01-23T05:27:19;32.45;;;14.88;;
67762;SDS011;54566;52.022;5.582;2023-01-23T05:29:53;27.77;;;14.13;;
67762;SDS011;54566;52.022;5.582;2023-01-23T05:35:12;32.05;;;14.30;;
67762;SDS011;54566;52.022;5.582;2023-01-23T05:37:46;31.75;;;15.25;;
67762;SDS011;54566;52.022;5.582;2023-01-23T05:40:20;33.38;;;13.70;;
67762;SDS011;54566;52.022;5.582;2023-01-23T05:42:54;30.40;;;14.07;;
67762;SDS011;54566;52.022;5.582;2023-01-23T05:45:25;25.80;;;14.23;;
67762;SDS011;54566;52.022;5.582;2023-01-23T05:47:56;32.85;;;14.90;;
67762;SDS011;54566;52.022;5.582;2023-01-23T05:50:22;25.65;;;13.95;;
67762;SDS011;54566;52.022;5.582;2023-01-23T05:52:49;28.75;;;14.20;;
67762;SDS011;54566;52.022;5.582;2023-01-23T05:55:15;33.05;;;15.07;;
67762;SDS011;54566;52.022;5.582;2023-01-23T05:57:41;27.45;;;14.73;;
67762;SDS011;54566;52.022;5.582;2023-01-23T06:00:08;33.45;;;15.10;;
67762;SDS011;54566;52.022;5.582;2023-01-23T06:02:36;33.15;;;14.65;;
67762;SDS011;54566;52.022;5.582;2023-01-23T06:05:02;30.35;;;14.52;;
67762;SDS011;54566;52.022;5.582;2023-01-23T06:22:37;29.02;;;15.02;;
67762;SDS011;54566;52.022;5.582;2023-01-23T06:25:20;33.88;;;13.85;;
67762;SDS011;54566;52.022;5.582;2023-01-23T06:43:47;32.33;;;14.30;;
67762;SDS011;54566;52.022;5.582;2023-01-23T06:46:13;33.67;;;14.68;;
67762;SDS011;54566;52.022;5.582;2023-01-23T06:51:28;31.27;;;14.80;;
67762;SDS011;54566;52.022;5.582;2023-01-23T06:54:09;32.65;;;14.50;;
67762;SDS011;54566;52.022;5.582;2023-01-23T06:56:38;39.03;;;14.95;;
67762;SDS011;54566;52.022;5.582;2023-01-23T06:59:27;32.35;;;15.13;;
67762;SDS011;54566;52.022;5.582;2023-01-23T07:14:31;29.05;;;14.43;;
67762;SDS011;54566;52.022;5.582;2023-01-23T07:17:32;29.88;;;14.27;;
67762;SDS011;54566;52.022;5.582;2023-01-23T07:26:02;33.35;;;14.90;;
67762;SDS011;54566;52.022;5.582;2023-01-23T07:28:31;26.90;;;15.18;;
67762;SDS011;54566;52.022;5.582;2023-01-23T07:31:03;29.00;;;14.18;;
67762;SDS011;54566;52.022;5.582;2023-01-23T07:36:37;34.72;;;15.18;;
67762;SDS011;54566;52.022;5.582;2023-01-23T07:39:17;33.15;;;15.88;;
67762;SDS011;54566;52.022;5.582;2023-01-23T07:45:42;30.27;;;14.30;;
67762;SDS011;54566;52.022;5.582;2023-01-23T07:48:21;30.70;;;15.35;;
67762;SDS011;54566;52.022;5.582;2023-01-23T07:51:15;27.88;;;15.05;;
67762;SDS011;54566;52.022;5.582;2023-01-23T07:54:08;36.78;;;15.80;;
67762;SDS011;54566;52.022;5.582;2023-01-23T07:56:41;30.67;;;15.52;;
67762;SDS011;54566;52.022;5.582;2023-01-23T07:59:12;29.27;;;16.10;;
67762;SDS011;54566;52.022;5.582;2023-01-23T10:39:44;21.83;;;12.77;;
67762;SDS011;54566;52.022;5.582;2023-01-23T10:45:16;20.55;;;12.05;;
